Darmstadt, Indiana
Current Conditions -  °F | °C
As of 7:54 AM on Thursday 30 Oct 2014 (Local Time) from KEVV Reporting Station
Clear Clear  
Wind Chill: 38°   Ceiling: Unl
Heat Index: 38°   Visibility: NA
Dew Point: 36°   Wind: 0mph
Humidity: 93%   Direction: NA
Pressure: 30.19"   Gusts: NA
Location:  38.1195°N, 87.5368°W
Report Text: KEVV 301254Z 00000KT CLR 03/02 A3019 RMK AO2 SLP224 T00330022 $
Loading
Personal Weather Stations






























Interactive Weather Map
Tropical Storm Tracking
New forecast layout! Learn more

10-Day Weather Forecast

Advertisements
Track Severe Weather on mobile